sensor_id;sensor_type;location;lat;lon;timestamp;P1;durP1;ratioP1;P2;durP2;ratioP2
47922;SDS011;33688;44.354;9.228;2024-03-23T00:54:55;1.85;;;1.58;;
47922;SDS011;33688;44.354;9.228;2024-03-23T00:57:21;1.67;;;1.58;;
47922;SDS011;33688;44.354;9.228;2024-03-23T00:59:47;2.10;;;1.40;;
47922;SDS011;33688;44.354;9.228;2024-03-23T01:02:12;1.85;;;1.60;;
47922;SDS011;33688;44.354;9.228;2024-03-23T01:04:38;1.83;;;1.60;;
47922;SDS011;33688;44.354;9.228;2024-03-23T01:07:04;1.50;;;1.40;;
47922;SDS011;33688;44.354;9.228;2024-03-23T01:09:30;2.22;;;2.03;;
47922;SDS011;33688;44.354;9.228;2024-03-23T01:11:56;2.17;;;1.98;;
47922;SDS011;33688;44.354;9.228;2024-03-23T01:14:22;1.52;;;1.42;;
47922;SDS011;33688;44.354;9.228;2024-03-23T01:16:47;1.63;;;1.52;;
47922;SDS011;33688;44.354;9.228;2024-03-23T01:19:13;1.80;;;1.70;;
47922;SDS011;33688;44.354;9.228;2024-03-23T01:21:40;1.83;;;1.65;;
47922;SDS011;33688;44.354;9.228;2024-03-23T01:24:06;1.58;;;1.48;;
47922;SDS011;33688;44.354;9.228;2024-03-23T01:26:35;1.65;;;1.55;;
47922;SDS011;33688;44.354;9.228;2024-03-23T01:29:00;1.65;;;1.55;;
47922;SDS011;33688;44.354;9.228;2024-03-23T01:31:26;1.70;;;1.60;;
47922;SDS011;33688;44.354;9.228;2024-03-23T01:33:53;1.50;;;1.40;;
47922;SDS011;33688;44.354;9.228;2024-03-23T01:36:18;1.60;;;1.50;;
47922;SDS011;33688;44.354;9.228;2024-03-23T01:38:45;1.63;;;1.52;;
47922;SDS011;33688;44.354;9.228;2024-03-23T01:41:10;1.35;;;1.25;;
47922;SDS011;33688;44.354;9.228;2024-03-23T01:43:37;2.55;;;1.63;;
47922;SDS011;33688;44.354;9.228;2024-03-23T01:46:03;1.40;;;1.30;;
47922;SDS011;33688;44.354;9.228;2024-03-23T01:48:29;1.70;;;1.50;;
47922;SDS011;33688;44.354;9.228;2024-03-23T01:50:54;1.83;;;1.40;;
47922;SDS011;33688;44.354;9.228;2024-03-23T01:53:20;1.83;;;1.38;;
47922;SDS011;33688;44.354;9.228;2024-03-23T01:55:48;1.42;;;1.33;;
47922;SDS011;33688;44.354;9.228;2024-03-23T01:58:16;1.50;;;1.40;;
47922;SDS011;33688;44.354;9.228;2024-03-23T02:00:42;1.45;;;1.35;;
47922;SDS011;33688;44.354;9.228;2024-03-23T02:03:41;1.48;;;1.38;;
47922;SDS011;33688;44.354;9.228;2024-03-23T02:05:59;1.58;;;1.48;;
47922;SDS011;33688;44.354;9.228;2024-03-23T02:08:25;1.73;;;1.42;;
47922;SDS011;33688;44.354;9.228;2024-03-23T02:10:51;1.50;;;1.40;;
47922;SDS011;33688;44.354;9.228;2024-03-23T02:13:18;1.52;;;1.42;;
47922;SDS011;33688;44.354;9.228;2024-03-23T02:15:44;1.65;;;1.50;;
47922;SDS011;33688;44.354;9.228;2024-03-23T02:18:11;2.10;;;1.35;;
47922;SDS011;33688;44.354;9.228;2024-03-23T02:20:37;1.52;;;1.42;;
47922;SDS011;33688;44.354;9.228;2024-03-23T02:23:03;1.85;;;1.75;;
47922;SDS011;33688;44.354;9.228;2024-03-23T02:25:33;1.35;;;1.25;;
47922;SDS011;33688;44.354;9.228;2024-03-23T02:27:59;1.30;;;1.20;;
47922;SDS011;33688;44.354;9.228;2024-03-23T02:30:26;3.67;;;1.58;;
47922;SDS011;33688;44.354;9.228;2024-03-23T02:32:53;2.05;;;1.40;;
47922;SDS011;33688;44.354;9.228;2024-03-23T02:35:19;3.30;;;1.23;;
47922;SDS011;33688;44.354;9.228;2024-03-23T02:37:46;1.42;;;1.33;;
47922;SDS011;33688;44.354;9.228;2024-03-23T02:40:14;1.23;;;1.13;;
47922;SDS011;33688;44.354;9.228;2024-03-23T02:42:43;1.60;;;1.50;;
47922;SDS011;33688;44.354;9.228;2024-03-23T02:45:09;1.67;;;1.58;;
47922;SDS011;33688;44.354;9.228;2024-03-23T02:47:35;1.73;;;1.30;;
47922;SDS011;33688;44.354;9.228;2024-03-23T02:50:01;1.42;;;1.33;;
47922;SDS011;33688;44.354;9.228;2024-03-23T02:52:27;1.38;;;1.27;;
47922;SDS011;33688;44.354;9.228;2024-03-23T02:54:53;1.63;;;1.50;;
47922;SDS011;33688;44.354;9.228;2024-03-23T02:57:19;1.77;;;1.65;;
47922;SDS011;33688;44.354;9.228;2024-03-23T02:59:45;2.25;;;1.60;;
47922;SDS011;33688;44.354;9.228;2024-03-23T03:02:11;1.58;;;1.20;;
47922;SDS011;33688;44.354;9.228;2024-03-23T03:04:39;1.58;;;1.27;;
47922;SDS011;33688;44.354;9.228;2024-03-23T03:07:05;1.60;;;1.50;;
47922;SDS011;33688;44.354;9.228;2024-03-23T03:09:31;2.20;;;1.45;;
47922;SDS011;33688;44.354;9.228;2024-03-23T03:11:58;1.50;;;1.40;;
47922;SDS011;33688;44.354;9.228;2024-03-23T03:14:23;1.55;;;1.30;;
47922;SDS011;33688;44.354;9.228;2024-03-23T03:16:49;2.95;;;1.50;;
47922;SDS011;33688;44.354;9.228;2024-03-23T03:19:15;2.15;;;1.25;;
47922;SDS011;33688;44.354;9.228;2024-03-23T03:21:43;1.70;;;1.55;;
47922;SDS011;33688;44.354;9.228;2024-03-23T03:24:09;1.40;;;1.30;;
47922;SDS011;33688;44.354;9.228;2024-03-23T03:26:35;1.35;;;1.25;;
47922;SDS011;33688;44.354;9.228;2024-03-23T03:29:00;1.40;;;1.30;;
47922;SDS011;33688;44.354;9.228;2024-03-23T03:31:27;1.50;;;1.40;;
47922;SDS011;33688;44.354;9.228;2024-03-23T03:33:53;1.40;;;1.30;;
47922;SDS011;33688;44.354;9.228;2024-03-23T03:36:18;1.75;;;1.65;;
47922;SDS011;33688;44.354;9.228;2024-03-23T03:38:45;1.55;;;1.40;;
47922;SDS011;33688;44.354;9.228;2024-03-23T03:41:11;1.25;;;1.15;;
47922;SDS011;33688;44.354;9.228;2024-03-23T03:43:37;1.40;;;1.30;;
47922;SDS011;33688;44.354;9.228;2024-03-23T03:46:03;1.60;;;1.50;;
47922;SDS011;33688;44.354;9.228;2024-03-23T03:48:29;1.02;;;1.00;;
47922;SDS011;33688;44.354;9.228;2024-03-23T03:50:55;1.23;;;1.13;;
47922;SDS011;33688;44.354;9.228;2024-03-23T03:53:21;1.40;;;1.30;;
47922;SDS011;33688;44.354;9.228;2024-03-23T03:55:47;1.35;;;1.25;;
47922;SDS011;33688;44.354;9.228;2024-03-23T03:58:12;1.60;;;1.50;;
47922;SDS011;33688;44.354;9.228;2024-03-23T04:00:38;1.48;;;1.38;;
47922;SDS011;33688;44.354;9.228;2024-03-23T04:03:04;1.27;;;1.17;;
47922;SDS011;33688;44.354;9.228;2024-03-23T04:05:31;1.55;;;1.45;;
47922;SDS011;33688;44.354;9.228;2024-03-23T04:07:57;1.50;;;1.40;;
47922;SDS011;33688;44.354;9.228;2024-03-23T04:10:22;1.50;;;1.40;;
47922;SDS011;33688;44.354;9.228;2024-03-23T04:12:48;1.70;;;1.25;;
47922;SDS011;33688;44.354;9.228;2024-03-23T04:15:14;1.50;;;1.40;;
47922;SDS011;33688;44.354;9.228;2024-03-23T04:17:40;1.15;;;1.13;;
47922;SDS011;33688;44.354;9.228;2024-03-23T04:20:07;1.33;;;1.20;;
47922;SDS011;33688;44.354;9.228;2024-03-23T04:22:39;2.05;;;1.55;;
47922;SDS011;33688;44.354;9.228;2024-03-23T04:25:05;1.77;;;1.30;;
47922;SDS011;33688;44.354;9.228;2024-03-23T04:27:35;1.25;;;1.15;;
47922;SDS011;33688;44.354;9.228;2024-03-23T04:30:03;1.38;;;1.27;;
47922;SDS011;33688;44.354;9.228;2024-03-23T04:32:36;1.40;;;1.27;;
47922;SDS011;33688;44.354;9.228;2024-03-23T04:35:04;1.00;;;1.00;;
47922;SDS011;33688;44.354;9.228;2024-03-23T04:37:34;1.58;;;1.48;;
47922;SDS011;33688;44.354;9.228;2024-03-23T04:40:06;1.50;;;1.40;;
47922;SDS011;33688;44.354;9.228;2024-03-23T04:42:32;1.02;;;1.00;;
47922;SDS011;33688;44.354;9.228;2024-03-23T04:44:58;1.40;;;1.23;;
47922;SDS011;33688;44.354;9.228;2024-03-23T04:47:25;1.00;;;1.00;;
47922;SDS011;33688;44.354;9.228;2024-03-23T04:49:51;1.30;;;1.20;;
47922;SDS011;33688;44.354;9.228;2024-03-23T04:52:18;1.20;;;1.10;;
47922;SDS011;33688;44.354;9.228;2024-03-23T04:54:44;1.13;;;1.00;;
47922;SDS011;33688;44.354;9.228;2024-03-23T04:57:13;1.40;;;1.30;;
47922;SDS011;33688;44.354;9.228;2024-03-23T04:59:45;1.33;;;1.23;;
47922;SDS011;33688;44.354;9.228;2024-03-23T05:02:13;1.63;;;1.48;;
47922;SDS011;33688;44.354;9.228;2024-03-23T05:04:40;1.38;;;1.25;;
47922;SDS011;33688;44.354;9.228;2024-03-23T05:07:07;1.30;;;1.20;;
47922;SDS011;33688;44.354;9.228;2024-03-23T05:09:33;1.20;;;1.10;;
47922;SDS011;33688;44.354;9.228;2024-03-23T05:11:59;1.25;;;1.10;;
47922;SDS011;33688;44.354;9.228;2024-03-23T05:14:25;1.30;;;1.20;;
47922;SDS011;33688;44.354;9.228;2024-03-23T05:16:52;1.25;;;1.15;;
47922;SDS011;33688;44.354;9.228;2024-03-23T05:19:18;1.80;;;1.27;;
47922;SDS011;33688;44.354;9.228;2024-03-23T05:21:44;1.33;;;1.23;;
47922;SDS011;33688;44.354;9.228;2024-03-23T05:24:11;1.35;;;1.25;;
47922;SDS011;33688;44.354;9.228;2024-03-23T05:26:37;1.40;;;1.30;;
47922;SDS011;33688;44.354;9.228;2024-03-23T05:29:03;1.52;;;1.42;;
47922;SDS011;33688;44.354;9.228;2024-03-23T05:31:29;1.35;;;1.25;;
47922;SDS011;33688;44.354;9.228;2024-03-23T05:33:56;1.35;;;1.15;;
47922;SDS011;33688;44.354;9.228;2024-03-23T05:36:22;1.00;;;1.00;;
47922;SDS011;33688;44.354;9.228;2024-03-23T05:38:51;1.90;;;1.42;;
47922;SDS011;33688;44.354;9.228;2024-03-23T05:41:16;1.23;;;1.13;;
47922;SDS011;33688;44.354;9.228;2024-03-23T05:43:42;1.60;;;1.40;;
47922;SDS011;33688;44.354;9.228;2024-03-23T05:46:08;1.20;;;1.10;;
47922;SDS011;33688;44.354;9.228;2024-03-23T05:48:34;1.20;;;1.10;;
47922;SDS011;33688;44.354;9.228;2024-03-23T05:51:00;1.52;;;1.35;;
47922;SDS011;33688;44.354;9.228;2024-03-23T05:53:26;1.88;;;1.63;;
47922;SDS011;33688;44.354;9.228;2024-03-23T05:55:59;1.55;;;1.45;;
47922;SDS011;33688;44.354;9.228;2024-03-23T05:58:29;1.15;;;1.05;;
47922;SDS011;33688;44.354;9.228;2024-03-23T06:01:00;1.50;;;1.33;;
47922;SDS011;33688;44.354;9.228;2024-03-23T06:03:26;2.40;;;1.40;;
47922;SDS011;33688;44.354;9.228;2024-03-23T06:05:53;1.73;;;1.45;;
47922;SDS011;33688;44.354;9.228;2024-03-23T06:08:20;1.40;;;1.30;;
47922;SDS011;33688;44.354;9.228;2024-03-23T06:10:46;2.50;;;1.52;;
47922;SDS011;33688;44.354;9.228;2024-03-23T06:13:12;1.38;;;1.10;;
47922;SDS011;33688;44.354;9.228;2024-03-23T06:15:39;1.40;;;1.30;;
47922;SDS011;33688;44.354;9.228;2024-03-23T06:18:06;1.35;;;1.25;;
47922;SDS011;33688;44.354;9.228;2024-03-23T06:20:33;1.85;;;1.67;;
47922;SDS011;33688;44.354;9.228;2024-03-23T06:23:02;1.50;;;1.20;;
47922;SDS011;33688;44.354;9.228;2024-03-23T06:25:28;1.25;;;1.15;;
47922;SDS011;33688;44.354;9.228;2024-03-23T06:27:55;1.88;;;1.48;;
47922;SDS011;33688;44.354;9.228;2024-03-23T06:30:20;1.80;;;1.60;;
47922;SDS011;33688;44.354;9.228;2024-03-23T06:32:47;1.30;;;1.20;;
47922;SDS011;33688;44.354;9.228;2024-03-23T06:35:12;2.10;;;1.50;;
47922;SDS011;33688;44.354;9.228;2024-03-23T06:37:39;1.80;;;1.60;;
47922;SDS011;33688;44.354;9.228;2024-03-23T06:40:06;1.50;;;1.40;;
47922;SDS011;33688;44.354;9.228;2024-03-23T06:42:35;1.48;;;1.38;;
47922;SDS011;33688;44.354;9.228;2024-03-23T06:45:02;1.52;;;1.40;;
47922;SDS011;33688;44.354;9.228;2024-03-23T06:47:31;1.83;;;1.60;;
47922;SDS011;33688;44.354;9.228;2024-03-23T06:49:56;1.50;;;1.40;;
47922;SDS011;33688;44.354;9.228;2024-03-23T06:52:24;1.70;;;1.60;;
47922;SDS011;33688;44.354;9.228;2024-03-23T06:54:50;1.73;;;1.48;;
47922;SDS011;33688;44.354;9.228;2024-03-23T06:57:15;1.58;;;1.48;;
47922;SDS011;33688;44.354;9.228;2024-03-23T06:59:41;1.65;;;1.55;;
47922;SDS011;33688;44.354;9.228;2024-03-23T07:02:08;1.80;;;1.40;;
47922;SDS011;33688;44.354;9.228;2024-03-23T07:04:35;2.28;;;1.70;;
47922;SDS011;33688;44.354;9.228;2024-03-23T07:07:01;1.90;;;1.52;;
47922;SDS011;33688;44.354;9.228;2024-03-23T07:09:28;1.42;;;1.33;;
47922;SDS011;33688;44.354;9.228;2024-03-23T07:11:54;1.50;;;1.40;;
47922;SDS011;33688;44.354;9.228;2024-03-23T07:14:23;1.80;;;1.60;;
47922;SDS011;33688;44.354;9.228;2024-03-23T07:16:49;2.00;;;1.80;;
47922;SDS011;33688;44.354;9.228;2024-03-23T07:19:16;2.15;;;1.95;;
47922;SDS011;33688;44.354;9.228;2024-03-23T07:21:46;2.15;;;1.88;;
47922;SDS011;33688;44.354;9.228;2024-03-23T07:24:13;1.83;;;1.73;;
47922;SDS011;33688;44.354;9.228;2024-03-23T07:26:39;1.70;;;1.60;;
47922;SDS011;33688;44.354;9.228;2024-03-23T07:29:06;1.88;;;1.40;;
47922;SDS011;33688;44.354;9.228;2024-03-23T07:31:32;2.28;;;2.08;;
47922;SDS011;33688;44.354;9.228;2024-03-23T07:33:58;1.70;;;1.60;;
47922;SDS011;33688;44.354;9.228;2024-03-23T07:36:24;5.00;;;2.22;;
47922;SDS011;33688;44.354;9.228;2024-03-23T07:38:51;2.47;;;1.85;;
47922;SDS011;33688;44.354;9.228;2024-03-23T07:41:18;2.17;;;1.92;;
47922;SDS011;33688;44.354;9.228;2024-03-23T07:43:47;2.05;;;1.60;;
47922;SDS011;33688;44.354;9.228;2024-03-23T07:46:14;1.98;;;1.63;;
47922;SDS011;33688;44.354;9.228;2024-03-23T07:48:41;1.50;;;1.40;;
47922;SDS011;33688;44.354;9.228;2024-03-23T07:51:08;2.70;;;2.03;;
47922;SDS011;33688;44.354;9.228;2024-03-23T07:56:21;1.65;;;1.42;;
47922;SDS011;33688;44.354;9.228;2024-03-23T07:58:48;1.70;;;1.60;;
47922;SDS011;33688;44.354;9.228;2024-03-23T08:01:15;1.60;;;1.50;;
47922;SDS011;33688;44.354;9.228;2024-03-23T08:03:44;1.70;;;1.60;;
47922;SDS011;33688;44.354;9.228;2024-03-23T08:06:14;1.63;;;1.52;;
47922;SDS011;33688;44.354;9.228;2024-03-23T08:08:58;1.58;;;1.45;;
47922;SDS011;33688;44.354;9.228;2024-03-23T08:11:27;2.05;;;1.60;;
47922;SDS011;33688;44.354;9.228;2024-03-23T08:13:55;1.73;;;1.63;;
47922;SDS011;33688;44.354;9.228;2024-03-23T08:16:22;2.00;;;1.50;;
47922;SDS011;33688;44.354;9.228;2024-03-23T08:18:50;1.67;;;1.58;;
47922;SDS011;33688;44.354;9.228;2024-03-23T08:21:16;2.50;;;1.63;;
47922;SDS011;33688;44.354;9.228;2024-03-23T08:23:43;2.25;;;1.80;;
47922;SDS011;33688;44.354;9.228;2024-03-23T08:26:10;2.70;;;1.85;;
47922;SDS011;33688;44.354;9.228;2024-03-23T08:28:40;2.63;;;1.42;;
47922;SDS011;33688;44.354;9.228;2024-03-23T08:31:07;3.08;;;2.05;;
47922;SDS011;33688;44.354;9.228;2024-03-23T08:33:36;1.67;;;1.50;;
47922;SDS011;33688;44.354;9.228;2024-03-23T08:36:08;2.85;;;1.67;;
47922;SDS011;33688;44.354;9.228;2024-03-23T08:38:37;2.28;;;1.85;;
47922;SDS011;33688;44.354;9.228;2024-03-23T08:41:05;1.70;;;1.45;;
47922;SDS011;33688;44.354;9.228;2024-03-23T08:43:37;1.40;;;1.30;;
47922;SDS011;33688;44.354;9.228;2024-03-23T08:46:06;1.70;;;1.40;;
47922;SDS011;33688;44.354;9.228;2024-03-23T08:48:34;1.55;;;1.45;;
47922;SDS011;33688;44.354;9.228;2024-03-23T08:53:31;2.33;;;1.80;;
47922;SDS011;33688;44.354;9.228;2024-03-23T08:55:58;1.80;;;1.70;;
47922;SDS011;33688;44.354;9.228;2024-03-23T08:58:26;1.67;;;1.58;;
47922;SDS011;33688;44.354;9.228;2024-03-23T09:00:53;1.60;;;1.50;;
47922;SDS011;33688;44.354;9.228;2024-03-23T09:03:26;1.40;;;1.30;;
47922;SDS011;33688;44.354;9.228;2024-03-23T09:05:52;2.70;;;1.70;;
47922;SDS011;33688;44.354;9.228;2024-03-23T09:08:18;1.50;;;1.40;;
47922;SDS011;33688;44.354;9.228;2024-03-23T09:10:44;2.00;;;1.45;;
47922;SDS011;33688;44.354;9.228;2024-03-23T09:13:10;3.47;;;1.42;;
47922;SDS011;33688;44.354;9.228;2024-03-23T09:15:36;3.30;;;1.88;;
47922;SDS011;33688;44.354;9.228;2024-03-23T09:18:11;1.85;;;1.60;;
47922;SDS011;33688;44.354;9.228;2024-03-23T09:20:36;1.90;;;1.70;;
47922;SDS011;33688;44.354;9.228;2024-03-23T09:23:02;2.70;;;1.42;;
47922;SDS011;33688;44.354;9.228;2024-03-23T09:25:35;1.27;;;1.17;;
47922;SDS011;33688;44.354;9.228;2024-03-23T09:28:03;1.92;;;1.45;;
47922;SDS011;33688;44.354;9.228;2024-03-23T09:30:30;2.00;;;1.60;;
47922;SDS011;33688;44.354;9.228;2024-03-23T09:32:57;1.60;;;1.50;;
47922;SDS011;33688;44.354;9.228;2024-03-23T09:35:22;1.40;;;1.30;;
47922;SDS011;33688;44.354;9.228;2024-03-23T09:37:48;1.40;;;1.30;;
47922;SDS011;33688;44.354;9.228;2024-03-23T09:40:14;2.38;;;1.30;;
47922;SDS011;33688;44.354;9.228;2024-03-23T09:42:40;2.33;;;1.77;;
47922;SDS011;33688;44.354;9.228;2024-03-23T09:45:16;1.85;;;1.63;;
47922;SDS011;33688;44.354;9.228;2024-03-23T09:47:46;2.35;;;1.65;;
47922;SDS011;33688;44.354;9.228;2024-03-23T09:50:15;2.05;;;1.60;;
47922;SDS011;33688;44.354;9.228;2024-03-23T09:52:42;2.80;;;2.10;;
47922;SDS011;33688;44.354;9.228;2024-03-23T09:55:08;1.90;;;1.60;;
47922;SDS011;33688;44.354;9.228;2024-03-23T09:57:34;1.63;;;1.52;;
47922;SDS011;33688;44.354;9.228;2024-03-23T10:00:01;1.52;;;1.42;;
47922;SDS011;33688;44.354;9.228;2024-03-23T10:02:32;1.88;;;1.58;;
47922;SDS011;33688;44.354;9.228;2024-03-23T10:05:00;3.15;;;1.50;;
47922;SDS011;33688;44.354;9.228;2024-03-23T10:10:11;3.05;;;1.60;;
47922;SDS011;33688;44.354;9.228;2024-03-23T10:12:40;1.83;;;1.40;;
47922;SDS011;33688;44.354;9.228;2024-03-23T10:15:15;2.40;;;1.77;;
47922;SDS011;33688;44.354;9.228;2024-03-23T10:17:45;2.45;;;1.52;;
47922;SDS011;33688;44.354;9.228;2024-03-23T10:20:11;3.22;;;1.83;;
47922;SDS011;33688;44.354;9.228;2024-03-23T10:22:37;2.75;;;1.42;;
47922;SDS011;33688;44.354;9.228;2024-03-23T10:25:07;2.58;;;1.95;;
47922;SDS011;33688;44.354;9.228;2024-03-23T10:30:09;2.65;;;1.50;;
47922;SDS011;33688;44.354;9.228;2024-03-23T10:32:36;1.95;;;1.70;;
47922;SDS011;33688;44.354;9.228;2024-03-23T10:35:19;1.65;;;1.40;;
47922;SDS011;33688;44.354;9.228;2024-03-23T10:37:48;2.03;;;1.80;;
47922;SDS011;33688;44.354;9.228;2024-03-23T10:40:16;2.65;;;2.08;;
47922;SDS011;33688;44.354;9.228;2024-03-23T10:42:43;1.85;;;1.60;;
47922;SDS011;33688;44.354;9.228;2024-03-23T10:45:10;1.95;;;1.52;;
47922;SDS011;33688;44.354;9.228;2024-03-23T10:50:06;1.83;;;1.60;;
47922;SDS011;33688;44.354;9.228;2024-03-23T10:52:33;3.28;;;1.67;;
47922;SDS011;33688;44.354;9.228;2024-03-23T10:55:02;11.73;;;1.65;;
47922;SDS011;33688;44.354;9.228;2024-03-23T10:57:34;3.20;;;1.70;;
47922;SDS011;33688;44.354;9.228;2024-03-23T11:00:05;4.35;;;1.50;;
47922;SDS011;33688;44.354;9.228;2024-03-23T11:02:32;1.70;;;1.60;;
47922;SDS011;33688;44.354;9.228;2024-03-23T11:04:57;3.30;;;1.90;;
47922;SDS011;33688;44.354;9.228;2024-03-23T11:09:48;2.88;;;1.63;;
47922;SDS011;33688;44.354;9.228;2024-03-23T11:14:51;5.25;;;1.92;;
47922;SDS011;33688;44.354;9.228;2024-03-23T11:17:26;2.78;;;1.83;;
47922;SDS011;33688;44.354;9.228;2024-03-23T11:19:53;5.50;;;1.70;;
47922;SDS011;33688;44.354;9.228;2024-03-23T11:25:14;3.92;;;1.80;;
47922;SDS011;33688;44.354;9.228;2024-03-23T11:27:39;3.20;;;1.67;;
47922;SDS011;33688;44.354;9.228;2024-03-23T11:30:15;2.95;;;1.85;;
47922;SDS011;33688;44.354;9.228;2024-03-23T11:32:52;6.03;;;2.30;;
47922;SDS011;33688;44.354;9.228;2024-03-23T11:38:12;3.30;;;1.92;;
47922;SDS011;33688;44.354;9.228;2024-03-23T11:40:44;8.00;;;2.22;;
47922;SDS011;33688;44.354;9.228;2024-03-23T11:43:16;2.97;;;1.33;;
47922;SDS011;33688;44.354;9.228;2024-03-23T11:45:48;2.05;;;1.83;;
47922;SDS011;33688;44.354;9.228;2024-03-23T11:48:21;10.00;;;2.50;;
47922;SDS011;33688;44.354;9.228;2024-03-23T11:50:50;3.65;;;2.35;;
47922;SDS011;33688;44.354;9.228;2024-03-23T11:53:21;4.32;;;2.45;;
47922;SDS011;33688;44.354;9.228;2024-03-23T11:55:52;3.58;;;2.10;;
47922;SDS011;33688;44.354;9.228;2024-03-23T11:58:19;3.78;;;2.45;;
47922;SDS011;33688;44.354;9.228;2024-03-23T12:00:50;2.72;;;2.47;;
47922;SDS011;33688;44.354;9.228;2024-03-23T12:03:23;4.38;;;2.70;;
47922;SDS011;33688;44.354;9.228;2024-03-23T12:05:57;4.45;;;3.05;;
47922;SDS011;33688;44.354;9.228;2024-03-23T12:08:33;4.18;;;3.28;;
47922;SDS011;33688;44.354;9.228;2024-03-23T12:11:13;3.95;;;2.85;;
47922;SDS011;33688;44.354;9.228;2024-03-23T12:13:42;3.70;;;2.90;;
47922;SDS011;33688;44.354;9.228;2024-03-23T12:16:16;3.60;;;3.03;;
47922;SDS011;33688;44.354;9.228;2024-03-23T12:18:51;4.03;;;2.88;;
47922;SDS011;33688;44.354;9.228;2024-03-23T12:21:17;5.07;;;3.47;;
47922;SDS011;33688;44.354;9.228;2024-03-23T12:23:44;4.55;;;3.72;;
47922;SDS011;33688;44.354;9.228;2024-03-23T12:26:12;5.63;;;3.45;;
47922;SDS011;33688;44.354;9.228;2024-03-23T12:28:38;3.75;;;3.22;;
47922;SDS011;33688;44.354;9.228;2024-03-23T12:31:04;3.78;;;3.38;;
47922;SDS011;33688;44.354;9.228;2024-03-23T12:33:31;5.03;;;3.40;;
47922;SDS011;33688;44.354;9.228;2024-03-23T12:35:57;3.85;;;3.47;;
47922;SDS011;33688;44.354;9.228;2024-03-23T12:38:23;4.75;;;3.78;;
47922;SDS011;33688;44.354;9.228;2024-03-23T12:40:50;4.05;;;3.38;;
47922;SDS011;33688;44.354;9.228;2024-03-23T12:43:16;4.38;;;3.38;;
47922;SDS011;33688;44.354;9.228;2024-03-23T12:45:46;5.50;;;4.32;;
47922;SDS011;33688;44.354;9.228;2024-03-23T12:48:15;5.57;;;4.13;;
47922;SDS011;33688;44.354;9.228;2024-03-23T12:50:42;4.65;;;4.20;;
47922;SDS011;33688;44.354;9.228;2024-03-23T12:53:08;4.97;;;3.78;;
47922;SDS011;33688;44.354;9.228;2024-03-23T12:55:37;5.43;;;3.92;;
47922;SDS011;33688;44.354;9.228;2024-03-23T12:58:03;4.35;;;3.75;;
47922;SDS011;33688;44.354;9.228;2024-03-23T13:00:30;4.22;;;3.42;;
47922;SDS011;33688;44.354;9.228;2024-03-23T13:02:57;4.57;;;4.13;;
47922;SDS011;33688;44.354;9.228;2024-03-23T13:05:23;6.45;;;4.22;;
47922;SDS011;33688;44.354;9.228;2024-03-23T13:07:50;4.80;;;3.75;;
47922;SDS011;33688;44.354;9.228;2024-03-23T13:10:16;4.10;;;3.70;;
47922;SDS011;33688;44.354;9.228;2024-03-23T13:12:43;4.47;;;3.53;;
47922;SDS011;33688;44.354;9.228;2024-03-23T13:15:09;3.90;;;3.50;;
47922;SDS011;33688;44.354;9.228;2024-03-23T13:17:36;6.68;;;3.90;;
47922;SDS011;33688;44.354;9.228;2024-03-23T13:20:03;4.75;;;4.13;;
47922;SDS011;33688;44.354;9.228;2024-03-23T13:22:29;6.13;;;4.20;;
47922;SDS011;33688;44.354;9.228;2024-03-23T13:24:56;4.55;;;3.55;;
47922;SDS011;33688;44.354;9.228;2024-03-23T13:27:22;4.32;;;3.78;;
47922;SDS011;33688;44.354;9.228;2024-03-23T13:29:47;4.68;;;3.97;;
47922;SDS011;33688;44.354;9.228;2024-03-23T13:32:14;3.88;;;3.47;;
47922;SDS011;33688;44.354;9.228;2024-03-23T13:34:41;6.80;;;4.60;;
47922;SDS011;33688;44.354;9.228;2024-03-23T13:37:06;4.40;;;4.00;;
47922;SDS011;33688;44.354;9.228;2024-03-23T13:39:32;5.05;;;4.35;;
47922;SDS011;33688;44.354;9.228;2024-03-23T13:41:58;4.75;;;4.22;;
47922;SDS011;33688;44.354;9.228;2024-03-23T13:44:23;4.30;;;3.45;;
47922;SDS011;33688;44.354;9.228;2024-03-23T13:46:50;5.20;;;4.35;;
47922;SDS011;33688;44.354;9.228;2024-03-23T13:49:28;4.30;;;3.90;;
47922;SDS011;33688;44.354;9.228;2024-03-23T13:51:56;4.97;;;4.10;;
47922;SDS011;33688;44.354;9.228;2024-03-23T13:54:23;4.75;;;3.80;;
47922;SDS011;33688;44.354;9.228;2024-03-23T13:56:51;5.05;;;3.90;;
47922;SDS011;33688;44.354;9.228;2024-03-23T13:59:18;6.25;;;4.10;;
47922;SDS011;33688;44.354;9.228;2024-03-23T14:01:44;4.75;;;3.90;;
47922;SDS011;33688;44.354;9.228;2024-03-23T14:04:12;4.88;;;4.20;;
47922;SDS011;33688;44.354;9.228;2024-03-23T14:06:38;4.72;;;4.20;;
47922;SDS011;33688;44.354;9.228;2024-03-23T14:09:05;4.43;;;3.78;;
47922;SDS011;33688;44.354;9.228;2024-03-23T14:11:34;4.20;;;3.80;;
47922;SDS011;33688;44.354;9.228;2024-03-23T14:14:03;6.40;;;3.95;;
47922;SDS011;33688;44.354;9.228;2024-03-23T14:16:32;5.22;;;4.22;;
47922;SDS011;33688;44.354;9.228;2024-03-23T14:18:58;4.25;;;3.85;;
47922;SDS011;33688;44.354;9.228;2024-03-23T14:21:25;4.18;;;3.78;;
47922;SDS011;33688;44.354;9.228;2024-03-23T14:23:50;4.40;;;4.00;;
47922;SDS011;33688;44.354;9.228;2024-03-23T14:26:16;3.97;;;3.42;;
47922;SDS011;33688;44.354;9.228;2024-03-23T14:28:42;4.80;;;3.92;;
47922;SDS011;33688;44.354;9.228;2024-03-23T14:31:08;3.90;;;3.53;;
47922;SDS011;33688;44.354;9.228;2024-03-23T14:33:38;4.35;;;3.90;;
47922;SDS011;33688;44.354;9.228;2024-03-23T14:36:15;5.18;;;3.78;;
47922;SDS011;33688;44.354;9.228;2024-03-23T14:38:49;4.55;;;3.75;;
47922;SDS011;33688;44.354;9.228;2024-03-23T14:41:15;6.20;;;4.03;;
47922;SDS011;33688;44.354;9.228;2024-03-23T14:43:43;4.82;;;3.53;;
47922;SDS011;33688;44.354;9.228;2024-03-23T14:46:15;5.57;;;4.43;;
47922;SDS011;33688;44.354;9.228;2024-03-23T14:48:43;4.43;;;3.72;;
47922;SDS011;33688;44.354;9.228;2024-03-23T14:51:09;4.93;;;3.90;;
47922;SDS011;33688;44.354;9.228;2024-03-23T14:56:21;3.97;;;3.55;;
47922;SDS011;33688;44.354;9.228;2024-03-23T14:58:51;5.13;;;3.85;;
47922;SDS011;33688;44.354;9.228;2024-03-23T15:01:18;6.30;;;3.72;;
47922;SDS011;33688;44.354;9.228;2024-03-23T15:03:44;4.53;;;3.58;;
47922;SDS011;33688;44.354;9.228;2024-03-23T15:06:10;3.85;;;3.33;;
47922;SDS011;33688;44.354;9.228;2024-03-23T15:08:37;4.10;;;3.08;;
47922;SDS011;33688;44.354;9.228;2024-03-23T15:11:05;3.67;;;3.15;;
47922;SDS011;33688;44.354;9.228;2024-03-23T15:13:37;6.25;;;3.60;;
47922;SDS011;33688;44.354;9.228;2024-03-23T15:16:04;4.32;;;3.35;;
47922;SDS011;33688;44.354;9.228;2024-03-23T15:18:31;4.13;;;3.08;;
47922;SDS011;33688;44.354;9.228;2024-03-23T15:20:58;8.43;;;3.40;;
47922;SDS011;33688;44.354;9.228;2024-03-23T15:23:29;11.60;;;3.67;;
47922;SDS011;33688;44.354;9.228;2024-03-23T15:25:58;7.95;;;3.53;;
47922;SDS011;33688;44.354;9.228;2024-03-23T15:28:26;6.28;;;3.05;;
47922;SDS011;33688;44.354;9.228;2024-03-23T15:31:06;4.88;;;3.15;;
47922;SDS011;33688;44.354;9.228;2024-03-23T15:33:34;5.80;;;3.53;;
47922;SDS011;33688;44.354;9.228;2024-03-23T15:36:00;7.78;;;2.83;;
47922;SDS011;33688;44.354;9.228;2024-03-23T15:38:27;4.55;;;3.40;;
47922;SDS011;33688;44.354;9.228;2024-03-23T15:40:54;4.35;;;3.00;;
47922;SDS011;33688;44.354;9.228;2024-03-23T15:43:22;3.35;;;3.05;;
47922;SDS011;33688;44.354;9.228;2024-03-23T15:45:54;6.18;;;2.83;;
47922;SDS011;33688;44.354;9.228;2024-03-23T15:48:25;4.07;;;2.55;;
47922;SDS011;33688;44.354;9.228;2024-03-23T15:50:53;7.97;;;2.90;;
47922;SDS011;33688;44.354;9.228;2024-03-23T15:53:21;7.53;;;3.15;;
47922;SDS011;33688;44.354;9.228;2024-03-23T15:58:27;4.40;;;2.90;;
47922;SDS011;33688;44.354;9.228;2024-03-23T16:01:04;3.85;;;2.85;;
47922;SDS011;33688;44.354;9.228;2024-03-23T16:03:31;6.43;;;3.08;;
47922;SDS011;33688;44.354;9.228;2024-03-23T16:06:02;2.65;;;2.40;;
47922;SDS011;33688;44.354;9.228;2024-03-23T16:11:15;4.32;;;3.03;;
47922;SDS011;33688;44.354;9.228;2024-03-23T16:13:41;3.70;;;2.92;;
47922;SDS011;33688;44.354;9.228;2024-03-23T16:16:08;4.70;;;2.67;;